Mc Kittrick, California
Current Conditions -  °F | °C
As of 5:54 PM on Monday 20 Oct 2014 (Local Time) from KBFL Reporting Station
Clear Clear  
Wind Chill: 78°   Ceiling: Unl
Heat Index: 79°   Visibility: 10mi
Dew Point: 50°   Wind: 6mph
Humidity: 37%   Direction: 290°WNW
Pressure: 29.87"   Gusts: NA
Location:  35.4014°N, 119.705°W
Report Text: KBFL 210054Z 29005KT 10SM CLR 26/10 A2987 RMK AO2 SLP109 T02560100
Loading
Personal Weather Stations






























Interactive Weather Map
Tropical Storm Tracking
New forecast layout! Learn more

10-Day Weather Forecast

Advertisements
Track Severe Weather on mobile